Terminal Aerodrome Forecast
Issued by NWS Corpus Christi, TX

Home | Current Version | Previous Version | Text Only | Print | Product List | Glossary On
Versions: 1 2 3 4 5 6 7 8 9 10 11 12 13 14 15 16 17 18 19 20 21 22
000
FTUS44 KCRP 201738
TAFCRP
TAF
KCRP 201738Z 2018/2118 35007KT P6SM SCT009 BKN024 OVC110
      TEMPO 2018/2019 SCT009 BKN015
     FM202000 27005KT P6SM SCT100
     FM210000 VRB06KT P6SM SKC
     FM211400 30016G22KT P6SM SKC=

USA.gov is the U.S. government's official web portal to all federal, state and local government web resources and services.